createdAt,value
2024-03-12T00:00:42.298Z,6.90
2024-03-12T00:03:11.155Z,6.80
2024-03-12T00:05:41.904Z,6.80
2024-03-12T00:08:12.347Z,6.80
2024-03-12T00:10:40.668Z,6.70
2024-03-12T00:13:10.754Z,6.60
2024-03-12T00:15:38.975Z,6.60
2024-03-12T00:18:07.504Z,6.60
2024-03-12T00:20:36.181Z,6.60
2024-03-12T00:23:07.258Z,6.50
2024-03-12T00:25:38.250Z,6.40
2024-03-12T00:28:09.609Z,6.40
2024-03-12T00:30:42.174Z,6.30
2024-03-12T00:33:11.228Z,6.30
2024-03-12T00:35:43.973Z,6.30
2024-03-12T00:38:12.536Z,6.30
2024-03-12T00:40:43.825Z,6.20
2024-03-12T00:43:13.169Z,6.20
2024-03-12T00:45:42.655Z,6.20
2024-03-12T00:48:15.377Z,6.10
2024-03-12T00:50:46.827Z,6.10
2024-03-12T00:53:15.830Z,6.10
2024-03-12T00:55:49.175Z,6.10
2024-03-12T00:58:21.026Z,6.10
2024-03-12T01:00:50.154Z,6.00
2024-03-12T01:03:18.763Z,6.00
2024-03-12T01:05:47.459Z,5.90
2024-03-12T01:08:17.660Z,5.90
2024-03-12T01:10:53.550Z,5.90
2024-03-12T01:13:21.802Z,5.90
2024-03-12T01:15:53.988Z,5.90
2024-03-12T01:18:22.438Z,5.80
2024-03-12T01:20:50.792Z,5.80
2024-03-12T01:23:19.035Z,5.80
2024-03-12T01:25:48.844Z,5.90
2024-03-12T01:28:19.291Z,5.90
2024-03-12T01:30:47.746Z,5.90
2024-03-12T01:33:15.983Z,6.00
2024-03-12T01:35:48.528Z,5.90
2024-03-12T01:38:16.713Z,5.90
2024-03-12T01:40:44.872Z,6.00
2024-03-12T01:43:14.737Z,6.00
2024-03-12T01:45:44.363Z,6.00
2024-03-12T01:48:13.517Z,6.00
2024-03-12T01:50:42.179Z,5.90
2024-03-12T01:53:11.988Z,5.90
2024-03-12T01:55:44.513Z,5.90
2024-03-12T01:58:18.571Z,5.80
2024-03-12T02:00:47.635Z,5.90
2024-03-12T02:03:20.155Z,5.90
2024-03-12T02:05:48.966Z,5.90
2024-03-12T02:08:17.701Z,6.10
2024-03-12T02:10:46.757Z,6.00
2024-03-12T02:13:16.435Z,5.90
2024-03-12T02:15:45.065Z,5.90
2024-03-12T02:18:13.540Z,5.90
2024-03-12T02:20:41.770Z,5.80
2024-03-12T02:23:10.267Z,5.80
2024-03-12T02:25:39.749Z,5.80
2024-03-12T02:28:08.667Z,5.70
2024-03-12T02:30:36.989Z,5.70
2024-03-12T02:33:05.622Z,5.70
2024-03-12T02:35:35.774Z,5.60
2024-03-12T02:38:04.245Z,5.60
2024-03-12T02:40:34.735Z,5.50
2024-03-12T02:43:04.733Z,5.60
2024-03-12T02:45:33.845Z,5.50
2024-03-12T02:48:05.981Z,5.50
2024-03-12T02:50:34.285Z,5.50
2024-03-12T02:53:02.517Z,5.50
2024-03-12T02:55:31.004Z,5.50
2024-03-12T02:57:59.255Z,5.50
2024-03-12T03:00:30.242Z,5.50
2024-03-12T03:02:58.563Z,5.60
2024-03-12T03:05:26.812Z,5.60
2024-03-12T03:07:55.856Z,5.60
2024-03-12T03:10:24.097Z,5.50
2024-03-12T03:12:53.048Z,5.40
2024-03-12T03:15:22.027Z,5.50
2024-03-12T03:17:51.581Z,5.60
2024-03-12T03:20:19.809Z,5.40
2024-03-12T03:22:48.059Z,5.40
2024-03-12T03:25:16.779Z,5.30
2024-03-12T03:27:45.096Z,5.30
2024-03-12T03:30:19.201Z,5.30
2024-03-12T03:32:49.874Z,5.30
2024-03-12T03:35:20.526Z,5.20
2024-03-12T03:37:48.774Z,5.20
2024-03-12T03:40:24.251Z,5.20
2024-03-12T03:42:54.464Z,5.30
2024-03-12T03:45:22.851Z,5.20
2024-03-12T03:47:51.493Z,5.20
2024-03-12T03:50:21.150Z,5.20
2024-03-12T03:52:50.063Z,5.20
2024-03-12T03:55:18.576Z,5.20
2024-03-12T03:57:49.237Z,5.10
2024-03-12T04:00:20.144Z,5.20
2024-03-12T04:02:49.946Z,5.20
2024-03-12T04:05:20.598Z,5.20
2024-03-12T04:07:50.124Z,5.20
2024-03-12T04:10:18.484Z,5.20
2024-03-12T04:12:47.768Z,5.20
2024-03-12T04:15:17.322Z,5.10
2024-03-12T04:17:46.116Z,5.10
2024-03-12T04:20:17.811Z,5.10
2024-03-12T04:22:47.592Z,5.00
2024-03-12T04:25:18.580Z,5.00
2024-03-12T04:27:48.538Z,5.00
2024-03-12T04:30:16.842Z,5.00
2024-03-12T04:32:46.558Z,5.00
2024-03-12T04:35:14.898Z,4.90
2024-03-12T04:37:43.367Z,4.90
2024-03-12T04:40:13.781Z,4.90
2024-03-12T04:42:44.826Z,4.80
2024-03-12T04:45:13.225Z,4.80
2024-03-12T04:47:42.721Z,4.70
2024-03-12T04:50:15.034Z,4.70
2024-03-12T04:52:43.405Z,4.70
2024-03-12T04:55:14.597Z,4.70
2024-03-12T04:57:42.901Z,4.60
2024-03-12T05:00:16.735Z,4.70
2024-03-12T05:02:45.838Z,4.60
2024-03-12T05:05:19.031Z,4.70
2024-03-12T05:07:47.348Z,4.70
2024-03-12T05:10:17.679Z,4.60
2024-03-12T05:12:46.192Z,4.60
2024-03-12T05:15:14.598Z,4.60
2024-03-12T05:17:43.765Z,4.60
2024-03-12T05:20:15.436Z,4.60
2024-03-12T05:22:43.771Z,4.60
2024-03-12T05:25:20.529Z,4.60
2024-03-12T05:27:51.399Z,4.60
2024-03-12T05:30:21.933Z,4.50
2024-03-12T05:32:51.024Z,4.50
2024-03-12T05:35:21.839Z,4.50
2024-03-12T05:38:09.653Z,4.50
2024-03-12T05:40:58.389Z,4.50
2024-03-12T05:43:47.594Z,4.50
2024-03-12T05:46:34.472Z,4.50
2024-03-12T05:49:03.732Z,4.60
2024-03-12T05:51:33.141Z,4.60
2024-03-12T05:54:01.437Z,4.70
2024-03-12T05:56:31.581Z,4.60
2024-03-12T05:59:01.287Z,4.60
2024-03-12T06:01:33.969Z,4.70
2024-03-12T06:04:03.546Z,4.70
2024-03-12T06:06:35.548Z,4.80
2024-03-12T06:09:03.970Z,4.80
2024-03-12T06:11:35.512Z,4.80
2024-03-12T06:14:07.072Z,4.80
2024-03-12T06:16:35.430Z,5.00
2024-03-12T06:19:03.613Z,5.00
2024-03-12T06:21:33.797Z,5.00
2024-03-12T06:24:02.064Z,5.00
2024-03-12T06:26:30.761Z,5.10
2024-03-12T06:28:59.393Z,5.10
2024-03-12T06:31:33.794Z,5.10
2024-03-12T06:34:01.999Z,5.30
2024-03-12T06:36:39.131Z,5.30
2024-03-12T06:39:11.701Z,5.40
2024-03-12T06:41:42.473Z,5.60
2024-03-12T06:44:16.904Z,5.60
2024-03-12T06:46:46.925Z,5.70
2024-03-12T06:49:15.762Z,5.90
2024-03-12T06:51:52.804Z,6.00
2024-03-12T06:54:22.186Z,6.10
2024-03-12T06:56:56.647Z,6.20
2024-03-12T06:59:25.960Z,6.40
2024-03-12T07:01:56.519Z,6.50
2024-03-12T07:04:26.333Z,6.70
2024-03-12T07:06:56.244Z,6.80
2024-03-12T07:09:27.559Z,6.80
2024-03-12T07:12:00.096Z,6.80
2024-03-12T07:14:33.360Z,6.90
2024-03-12T07:17:02.902Z,6.90
2024-03-12T07:19:32.070Z,6.90
2024-03-12T07:22:00.776Z,7.00
2024-03-12T07:24:31.842Z,7.10
2024-03-12T07:27:00.489Z,7.20
2024-03-12T07:29:29.305Z,7.30
2024-03-12T07:31:57.509Z,7.50
2024-03-12T07:34:27.142Z,7.60
2024-03-12T07:36:55.833Z,7.70
2024-03-12T07:39:31.176Z,7.80
2024-03-12T07:42:01.055Z,7.80
2024-03-12T07:44:29.331Z,7.90
2024-03-12T07:46:57.892Z,8.00
2024-03-12T07:49:28.213Z,8.10
2024-03-12T07:51:56.424Z,8.20
2024-03-12T07:54:24.646Z,8.30
2024-03-12T07:56:52.827Z,8.50
2024-03-12T07:59:23.153Z,8.60
2024-03-12T08:01:54.106Z,8.80
2024-03-12T08:04:23.325Z,8.90
2024-03-12T08:06:53.125Z,8.90
2024-03-12T08:09:22.287Z,9.00
2024-03-12T08:11:52.870Z,9.20
2024-03-12T08:14:21.187Z,9.20
2024-03-12T08:16:50.364Z,9.30
2024-03-12T08:19:18.755Z,9.40
2024-03-12T08:21:47.833Z,9.50
2024-03-12T08:24:17.757Z,9.60
2024-03-12T08:26:45.958Z,9.70
2024-03-12T08:29:16.147Z,9.80
2024-03-12T08:31:51.501Z,10.00
2024-03-12T08:34:27.466Z,10.10
2024-03-12T08:36:57.950Z,10.10
2024-03-12T08:39:32.278Z,10.20
2024-03-12T08:42:01.178Z,10.30
2024-03-12T08:44:29.428Z,10.50
2024-03-12T08:46:59.547Z,10.50
2024-03-12T08:49:27.821Z,10.60
2024-03-12T08:51:56.866Z,10.80
2024-03-12T08:54:25.131Z,10.80
2024-03-12T08:56:54.738Z,11.00
2024-03-12T08:59:22.975Z,11.00
2024-03-12T09:01:51.385Z,11.10
2024-03-12T09:04:21.242Z,11.20
2024-03-12T09:06:49.594Z,11.20
2024-03-12T09:09:20.309Z,11.20
2024-03-12T09:11:48.869Z,11.40
2024-03-12T09:14:18.870Z,11.40
2024-03-12T09:16:47.066Z,11.60
2024-03-12T09:19:16.328Z,11.60
2024-03-12T09:21:44.687Z,11.70
2024-03-12T09:24:12.931Z,11.70
2024-03-12T09:26:41.106Z,11.80
2024-03-12T09:29:09.929Z,11.90
2024-03-12T09:31:40.390Z,11.90
2024-03-12T09:34:08.841Z,11.80
2024-03-12T09:36:37.124Z,11.90
2024-03-12T09:39:11.718Z,11.90
2024-03-12T09:41:45.907Z,11.90
2024-03-12T09:44:14.453Z,11.90
2024-03-12T09:46:46.578Z,11.90
2024-03-12T09:49:19.235Z,12.00
2024-03-12T09:51:47.971Z,12.10
2024-03-12T09:54:16.215Z,12.20
2024-03-12T09:56:44.773Z,12.30
2024-03-12T09:59:12.948Z,12.40
2024-03-12T10:01:41.235Z,12.70
2024-03-12T10:04:11.066Z,12.90
2024-03-12T10:06:39.402Z,12.90
2024-03-12T10:09:11.733Z,12.60
2024-03-12T10:11:46.061Z,12.40
2024-03-12T10:14:18.628Z,12.40
2024-03-12T10:16:46.863Z,12.30
2024-03-12T10:19:18.341Z,12.30
2024-03-12T10:21:47.381Z,12.30
2024-03-12T10:24:18.777Z,12.40
2024-03-12T10:26:47.546Z,12.40
2024-03-12T10:29:23.950Z,12.50
2024-03-12T10:31:52.187Z,12.50
2024-03-12T10:34:22.709Z,12.60
2024-03-12T10:36:51.944Z,12.60
2024-03-12T10:39:28.784Z,12.70
2024-03-12T10:42:03.979Z,12.80
2024-03-12T10:44:33.298Z,12.90
2024-03-12T10:47:02.745Z,12.90
2024-03-12T10:49:32.574Z,13.00
2024-03-12T10:52:01.252Z,12.90
2024-03-12T10:54:36.173Z,13.00
2024-03-12T10:57:07.759Z,13.00
2024-03-12T10:59:39.805Z,13.10
2024-03-12T11:02:08.904Z,13.20
2024-03-12T11:04:40.111Z,13.20
2024-03-12T11:07:11.755Z,13.20
2024-03-12T11:09:41.696Z,13.20
2024-03-12T11:12:10.845Z,13.00
2024-03-12T11:14:40.184Z,13.00
2024-03-12T11:17:28.465Z,12.90
2024-03-12T11:20:03.243Z,12.90
2024-03-12T11:22:32.409Z,12.80
2024-03-12T11:25:05.435Z,12.70
2024-03-12T11:27:35.325Z,12.70
2024-03-12T11:30:12.840Z,12.80
2024-03-12T11:32:44.808Z,12.90
2024-03-12T11:35:35.549Z,13.00
2024-03-12T11:38:09.627Z,13.10
2024-03-12T11:40:50.205Z,13.20
2024-03-12T11:43:41.239Z,13.30
2024-03-12T11:46:11.518Z,13.30
2024-03-12T11:48:43.050Z,13.30
2024-03-12T11:51:14.870Z,13.20
2024-03-12T11:53:46.292Z,13.20
2024-03-12T11:56:20.880Z,13.30
2024-03-12T11:58:59.769Z,13.30
2024-03-12T12:01:34.955Z,13.50
2024-03-12T12:04:06.406Z,13.60
2024-03-12T12:06:36.564Z,13.70
2024-03-12T12:09:07.385Z,13.80
2024-03-12T12:11:38.492Z,13.90
2024-03-12T12:14:09.590Z,13.90
2024-03-12T12:16:39.381Z,13.80
2024-03-12T12:19:16.574Z,13.90
2024-03-12T12:21:52.911Z,13.90
2024-03-12T12:24:27.101Z,13.90
2024-03-12T12:26:57.022Z,14.00
2024-03-12T12:29:29.928Z,13.90
2024-03-12T12:31:59.494Z,13.90
2024-03-12T12:34:29.492Z,14.00
2024-03-12T12:37:01.168Z,14.00
2024-03-12T12:39:43.715Z,14.00
2024-03-12T12:42:22.672Z,14.10
2024-03-12T12:44:54.711Z,14.20
2024-03-12T12:47:24.395Z,14.20
2024-03-12T12:49:55.734Z,14.10
2024-03-12T12:52:28.203Z,14.00
2024-03-12T12:55:00.385Z,13.80
2024-03-12T12:57:35.739Z,13.90
2024-03-12T13:00:16.280Z,14.00
2024-03-12T13:02:44.485Z,14.10
2024-03-12T13:05:22.258Z,14.20
2024-03-12T13:07:52.100Z,14.10
2024-03-12T13:10:21.268Z,14.00
2024-03-12T13:12:52.534Z,14.10
2024-03-12T13:15:28.241Z,14.20
2024-03-12T13:17:56.539Z,14.00
2024-03-12T13:20:25.603Z,13.90
2024-03-12T13:22:55.953Z,13.90
2024-03-12T13:25:24.478Z,13.90
2024-03-12T13:27:52.868Z,13.80
2024-03-12T13:30:21.211Z,13.80
2024-03-12T13:32:50.280Z,13.70
2024-03-12T13:35:21.190Z,13.60
2024-03-12T13:37:49.813Z,13.60
2024-03-12T13:40:20.326Z,13.50
2024-03-12T13:42:49.288Z,13.50
2024-03-12T13:45:20.207Z,13.70
2024-03-12T13:47:48.551Z,13.70
2024-03-12T13:50:16.820Z,13.50
2024-03-12T13:52:45.001Z,13.80
2024-03-12T13:55:13.262Z,13.70
2024-03-12T13:57:47.076Z,13.80
2024-03-12T14:00:17.436Z,13.70
2024-03-12T14:02:46.548Z,13.80
2024-03-12T14:05:17.624Z,13.80
2024-03-12T14:07:47.229Z,13.80
2024-03-12T14:10:15.666Z,13.70
2024-03-12T14:12:45.215Z,13.70
2024-03-12T14:15:13.936Z,13.60
2024-03-12T14:17:42.146Z,13.60
2024-03-12T14:20:15.152Z,13.60
2024-03-12T14:22:45.464Z,13.50
2024-03-12T14:25:14.155Z,13.50
2024-03-12T14:27:43.992Z,13.30
2024-03-12T14:30:14.470Z,13.30
2024-03-12T14:32:43.177Z,13.30
2024-03-12T14:35:11.656Z,13.30
2024-03-12T14:37:41.559Z,13.20
2024-03-12T14:40:10.980Z,13.10
2024-03-12T14:42:42.200Z,13.10
2024-03-12T14:45:13.525Z,13.00
2024-03-12T14:47:42.274Z,12.90
2024-03-12T14:50:11.440Z,12.90
2024-03-12T14:52:40.046Z,12.70
2024-03-12T14:55:09.499Z,12.70
2024-03-12T14:57:39.172Z,12.50
2024-03-12T15:00:10.632Z,12.50
2024-03-12T15:02:41.548Z,12.40
2024-03-12T15:05:12.264Z,12.30
2024-03-12T15:07:42.191Z,12.40
2024-03-12T15:10:11.653Z,12.30
2024-03-12T15:12:42.148Z,12.20
2024-03-12T15:15:12.867Z,12.10
2024-03-12T15:17:46.080Z,12.10
2024-03-12T15:20:16.742Z,12.10
2024-03-12T15:22:48.128Z,12.00
2024-03-12T15:25:21.534Z,11.90
2024-03-12T15:27:50.348Z,11.80
2024-03-12T15:30:20.543Z,11.70
2024-03-12T15:32:50.249Z,11.70
2024-03-12T15:35:19.871Z,11.50
2024-03-12T15:37:48.114Z,11.50
2024-03-12T15:40:19.532Z,11.50
2024-03-12T15:42:48.085Z,11.40
2024-03-12T15:45:17.019Z,11.40
2024-03-12T15:47:45.868Z,11.40
2024-03-12T15:50:16.635Z,11.30
2024-03-12T15:52:45.663Z,11.30
2024-03-12T15:55:14.465Z,11.30
2024-03-12T15:57:45.636Z,11.20
2024-03-12T16:00:15.784Z,11.10
2024-03-12T16:02:46.112Z,11.10
2024-03-12T16:05:16.101Z,11.10
2024-03-12T16:07:46.969Z,11.10
2024-03-12T16:10:15.995Z,11.00
2024-03-12T16:12:46.833Z,11.00
2024-03-12T16:15:15.615Z,11.00
2024-03-12T16:17:44.187Z,10.90
2024-03-12T16:20:15.391Z,10.90
2024-03-12T16:22:46.742Z,10.90
2024-03-12T16:25:15.684Z,10.90
2024-03-12T16:27:45.059Z,10.90
2024-03-12T16:30:15.685Z,10.90
2024-03-12T16:32:45.715Z,10.90
2024-03-12T16:35:15.893Z,10.90
2024-03-12T16:37:45.964Z,10.90
2024-03-12T16:40:14.861Z,10.80
2024-03-12T16:42:44.477Z,10.80
2024-03-12T16:45:13.667Z,10.80
2024-03-12T16:47:42.975Z,10.70
2024-03-12T16:50:15.877Z,10.70
2024-03-12T16:52:47.335Z,10.70
2024-03-12T16:55:17.140Z,10.70
2024-03-12T16:57:46.158Z,10.60
2024-03-12T17:00:16.073Z,10.60
2024-03-12T17:02:45.248Z,10.60
2024-03-12T17:05:17.510Z,10.60
2024-03-12T17:07:51.718Z,10.50
2024-03-12T17:10:22.660Z,10.50
2024-03-12T17:12:52.304Z,10.50
2024-03-12T17:15:24.339Z,10.50
2024-03-12T17:17:53.211Z,10.40
2024-03-12T17:20:22.124Z,10.40
2024-03-12T17:22:52.460Z,10.40
2024-03-12T17:25:21.502Z,10.40
2024-03-12T17:27:52.726Z,10.40
2024-03-12T17:30:25.478Z,10.30
2024-03-12T17:32:56.220Z,10.30
2024-03-12T17:35:25.597Z,10.30
2024-03-12T17:38:02.063Z,10.30
2024-03-12T17:40:33.695Z,10.20
2024-03-12T17:43:03.447Z,10.20
2024-03-12T17:45:32.740Z,10.20
2024-03-12T17:48:03.257Z,10.20
2024-03-12T17:50:32.911Z,10.20
2024-03-12T17:53:07.238Z,10.10
2024-03-12T17:55:37.238Z,10.10
2024-03-12T17:58:07.214Z,10.10
2024-03-12T18:00:36.714Z,10.10
2024-03-12T18:03:09.066Z,10.10
2024-03-12T18:05:37.887Z,10.00
2024-03-12T18:08:19.671Z,10.10
2024-03-12T18:10:51.222Z,10.00
2024-03-12T18:13:20.834Z,10.10
2024-03-12T18:15:50.506Z,10.00
2024-03-12T18:18:18.907Z,10.00
2024-03-12T18:20:47.413Z,10.10
2024-03-12T18:23:16.959Z,10.10
2024-03-12T18:25:45.288Z,10.00
2024-03-12T18:28:15.583Z,10.00
2024-03-12T18:30:43.910Z,10.00
2024-03-12T18:33:12.344Z,10.00
2024-03-12T18:35:40.656Z,10.00
2024-03-12T18:38:08.960Z,10.00
2024-03-12T18:40:39.289Z,9.90
2024-03-12T18:43:08.760Z,9.90
2024-03-12T18:45:39.952Z,9.80
2024-03-12T18:48:11.233Z,9.80
2024-03-12T18:50:40.089Z,9.80
2024-03-12T18:53:09.604Z,9.70
2024-03-12T18:55:40.144Z,9.70
2024-03-12T18:58:09.657Z,9.70
2024-03-12T19:00:39.818Z,9.60
2024-03-12T19:03:18.657Z,9.60
2024-03-12T19:05:48.956Z,9.50
2024-03-12T19:08:18.416Z,9.50
2024-03-12T19:10:48.986Z,9.40
2024-03-12T19:13:17.912Z,9.40
2024-03-12T19:15:46.934Z,9.40
2024-03-12T19:18:21.429Z,9.40
2024-03-12T19:20:52.498Z,9.30
2024-03-12T19:23:21.537Z,9.30
2024-03-12T19:25:51.737Z,9.30
2024-03-12T19:28:20.040Z,9.40
2024-03-12T19:30:49.094Z,9.30
2024-03-12T19:33:19.898Z,9.30
2024-03-12T19:35:51.657Z,9.40
2024-03-12T19:38:21.018Z,9.40
2024-03-12T19:40:53.804Z,9.30
2024-03-12T19:43:25.176Z,9.30
2024-03-12T19:45:54.917Z,9.20
2024-03-12T19:48:27.213Z,9.20
2024-03-12T19:50:56.900Z,9.20
2024-03-12T19:53:25.136Z,9.10
2024-03-12T19:55:55.274Z,9.10
2024-03-12T19:58:24.287Z,9.10
2024-03-12T20:00:54.363Z,9.10
2024-03-12T20:03:24.033Z,9.20
2024-03-12T20:05:52.608Z,9.20
2024-03-12T20:08:21.055Z,9.20
2024-03-12T20:10:49.383Z,9.20
2024-03-12T20:13:19.352Z,9.30
2024-03-12T20:15:48.579Z,9.20
2024-03-12T20:18:16.903Z,9.30
2024-03-12T20:20:45.524Z,9.30
2024-03-12T20:23:13.646Z,9.20
2024-03-12T20:25:42.076Z,9.20
2024-03-12T20:28:13.079Z,9.30
2024-03-12T20:30:43.633Z,9.20
2024-03-12T20:33:13.333Z,9.30
2024-03-12T20:35:44.137Z,9.30
2024-03-12T20:38:15.354Z,9.30
2024-03-12T20:40:44.012Z,9.30
2024-03-12T20:43:12.731Z,9.20
2024-03-12T20:45:46.269Z,9.20
2024-03-12T20:48:14.774Z,9.10
2024-03-12T20:50:43.841Z,9.10
2024-03-12T20:53:12.317Z,9.10
2024-03-12T20:55:41.101Z,9.00
2024-03-12T20:58:09.486Z,9.00
2024-03-12T21:00:38.743Z,9.00
2024-03-12T21:03:10.374Z,9.00
2024-03-12T21:05:40.101Z,9.00
2024-03-12T21:08:08.782Z,9.00
2024-03-12T21:10:38.781Z,9.00
2024-03-12T21:13:07.103Z,9.00
2024-03-12T21:15:36.024Z,9.00
2024-03-12T21:18:07.003Z,9.00
2024-03-12T21:20:36.742Z,9.00
2024-03-12T21:23:08.587Z,9.00
2024-03-12T21:25:36.892Z,9.00
2024-03-12T21:28:06.875Z,9.00
2024-03-12T21:30:37.180Z,9.00
2024-03-12T21:33:05.733Z,9.00
2024-03-12T21:35:35.065Z,9.00
2024-03-12T21:38:05.068Z,9.00
2024-03-12T21:40:36.155Z,9.00
2024-03-12T21:43:05.299Z,8.90
2024-03-12T21:45:36.472Z,8.90
2024-03-12T21:48:08.030Z,8.90
2024-03-12T21:50:36.729Z,8.90
2024-03-12T21:53:09.094Z,8.90
2024-03-12T21:55:40.036Z,8.90
2024-03-12T21:58:08.852Z,8.90
2024-03-12T22:00:37.108Z,8.90
2024-03-12T22:03:06.045Z,8.90
2024-03-12T22:05:35.417Z,8.90
2024-03-12T22:08:05.998Z,8.90
2024-03-12T22:10:35.482Z,8.90
2024-03-12T22:13:04.013Z,8.90
2024-03-12T22:15:33.195Z,8.90
2024-03-12T22:18:02.420Z,8.90
2024-03-12T22:20:30.625Z,8.90
2024-03-12T22:22:59.443Z,8.90
2024-03-12T22:25:30.707Z,8.90
2024-03-12T22:27:59.036Z,8.90
2024-03-12T22:30:31.334Z,8.90
2024-03-12T22:33:02.810Z,8.90
2024-03-12T22:35:31.001Z,8.90
2024-03-12T22:38:03.346Z,8.90
2024-03-12T22:40:35.819Z,8.80
2024-03-12T22:43:04.680Z,8.80
2024-03-12T22:45:33.183Z,8.80
2024-03-12T22:48:04.202Z,8.80
2024-03-12T22:50:33.761Z,8.80
2024-03-12T22:53:05.540Z,8.80
2024-03-12T22:55:35.759Z,8.80
2024-03-12T22:58:06.078Z,8.80
2024-03-12T23:00:42.183Z,8.80
2024-03-12T23:03:14.881Z,8.80
2024-03-12T23:05:44.912Z,8.60
2024-03-12T23:08:15.458Z,8.70
2024-03-12T23:10:46.040Z,8.80
2024-03-12T23:13:18.335Z,8.80
2024-03-12T23:15:46.929Z,8.70
2024-03-12T23:18:15.280Z,8.70
2024-03-12T23:20:45.838Z,8.70
2024-03-12T23:23:14.647Z,8.70
2024-03-12T23:25:45.180Z,8.70
2024-03-12T23:28:14.146Z,8.70
2024-03-12T23:30:43.531Z,8.70
2024-03-12T23:33:14.764Z,8.70
2024-03-12T23:35:43.738Z,8.70
2024-03-12T23:38:13.066Z,8.70
2024-03-12T23:40:41.953Z,8.70
2024-03-12T23:43:11.733Z,8.70
2024-03-12T23:45:40.546Z,8.60
2024-03-12T23:48:09.184Z,8.60
2024-03-12T23:50:39.645Z,8.60
2024-03-12T23:53:08.070Z,8.60
2024-03-12T23:55:36.312Z,8.60
2024-03-12T23:58:05.501Z,8.60
